sensor_id;sensor_type;location;lat;lon;timestamp;temperature;humidity
24686;DHT22;12804;51.176;4.452;2022-11-15T00:00:07;10.10;99.90
24686;DHT22;12804;51.176;4.452;2022-11-15T00:02:53;10.10;99.90
24686;DHT22;12804;51.176;4.452;2022-11-15T00:05:37;10.00;99.90
24686;DHT22;12804;51.176;4.452;2022-11-15T00:08:21;10.10;99.90
24686;DHT22;12804;51.176;4.452;2022-11-15T00:11:05;10.10;99.90
24686;DHT22;12804;51.176;4.452;2022-11-15T00:13:50;10.10;99.90
24686;DHT22;12804;51.176;4.452;2022-11-15T00:16:34;10.10;99.90
24686;DHT22;12804;51.176;4.452;2022-11-15T00:19:18;10.10;99.90
24686;DHT22;12804;51.176;4.452;2022-11-15T00:22:02;10.10;99.90
24686;DHT22;12804;51.176;4.452;2022-11-15T00:24:46;10.10;99.90
24686;DHT22;12804;51.176;4.452;2022-11-15T00:27:31;10.20;99.90
24686;DHT22;12804;51.176;4.452;2022-11-15T00:30:15;10.20;99.90
24686;DHT22;12804;51.176;4.452;2022-11-15T00:33:04;10.40;99.90
24686;DHT22;12804;51.176;4.452;2022-11-15T00:35:49;10.40;99.90
24686;DHT22;12804;51.176;4.452;2022-11-15T00:38:34;10.40;99.90
24686;DHT22;12804;51.176;4.452;2022-11-15T00:41:18;10.50;99.90
24686;DHT22;12804;51.176;4.452;2022-11-15T00:44:02;10.50;99.90
24686;DHT22;12804;51.176;4.452;2022-11-15T00:46:47;10.60;99.90
24686;DHT22;12804;51.176;4.452;2022-11-15T00:49:31;10.80;99.90
24686;DHT22;12804;51.176;4.452;2022-11-15T00:52:15;10.90;99.90
24686;DHT22;12804;51.176;4.452;2022-11-15T00:54:59;11.10;99.90
24686;DHT22;12804;51.176;4.452;2022-11-15T00:57:44;11.20;99.90
24686;DHT22;12804;51.176;4.452;2022-11-15T01:00:29;11.30;99.90
24686;DHT22;12804;51.176;4.452;2022-11-15T01:03:13;11.30;99.90
24686;DHT22;12804;51.176;4.452;2022-11-15T01:05:59;11.40;99.90
24686;DHT22;12804;51.176;4.452;2022-11-15T01:08:44;11.50;99.90
24686;DHT22;12804;51.176;4.452;2022-11-15T01:11:28;11.50;99.90
24686;DHT22;12804;51.176;4.452;2022-11-15T01:14:12;11.50;99.90
24686;DHT22;12804;51.176;4.452;2022-11-15T01:16:56;11.50;99.90
24686;DHT22;12804;51.176;4.452;2022-11-15T01:19:40;11.60;99.90
24686;DHT22;12804;51.176;4.452;2022-11-15T01:22:24;11.60;99.90
24686;DHT22;12804;51.176;4.452;2022-11-15T01:25:09;11.60;99.90
24686;DHT22;12804;51.176;4.452;2022-11-15T01:27:53;11.60;99.90
24686;DHT22;12804;51.176;4.452;2022-11-15T01:30:37;11.60;99.90
24686;DHT22;12804;51.176;4.452;2022-11-15T01:33:21;11.60;99.90
24686;DHT22;12804;51.176;4.452;2022-11-15T01:36:08;11.60;99.90
24686;DHT22;12804;51.176;4.452;2022-11-15T01:38:54;11.60;99.90
24686;DHT22;12804;51.176;4.452;2022-11-15T01:41:39;11.70;99.90
24686;DHT22;12804;51.176;4.452;2022-11-15T01:44:39;11.70;99.90
24686;DHT22;12804;51.176;4.452;2022-11-15T01:47:40;11.70;99.90
24686;DHT22;12804;51.176;4.452;2022-11-15T01:50:29;11.60;99.90
24686;DHT22;12804;51.176;4.452;2022-11-15T01:53:15;11.60;99.90
24686;DHT22;12804;51.176;4.452;2022-11-15T01:56:02;11.70;99.90
24686;DHT22;12804;51.176;4.452;2022-11-15T01:58:49;11.70;99.90
24686;DHT22;12804;51.176;4.452;2022-11-15T02:01:35;11.80;99.90
24686;DHT22;12804;51.176;4.452;2022-11-15T02:04:31;11.80;99.90
24686;DHT22;12804;51.176;4.452;2022-11-15T02:07:17;11.80;99.90
24686;DHT22;12804;51.176;4.452;2022-11-15T02:10:22;11.80;99.90
24686;DHT22;12804;51.176;4.452;2022-11-15T02:13:06;11.80;99.90
24686;DHT22;12804;51.176;4.452;2022-11-15T02:16:04;11.80;99.90
24686;DHT22;12804;51.176;4.452;2022-11-15T02:28:21;11.80;99.90
24686;DHT22;12804;51.176;4.452;2022-11-15T02:34:42;11.70;99.90
24686;DHT22;12804;51.176;4.452;2022-11-15T02:37:48;11.80;99.90
24686;DHT22;12804;51.176;4.452;2022-11-15T02:43:56;11.90;99.90
24686;DHT22;12804;51.176;4.452;2022-11-15T02:46:51;11.90;99.90
24686;DHT22;12804;51.176;4.452;2022-11-15T02:49:59;11.90;99.90
24686;DHT22;12804;51.176;4.452;2022-11-15T02:52:46;11.90;99.90
24686;DHT22;12804;51.176;4.452;2022-11-15T02:55:43;12.10;99.90
24686;DHT22;12804;51.176;4.452;2022-11-15T03:04:57;11.90;99.90
24686;DHT22;12804;51.176;4.452;2022-11-15T03:11:07;11.70;99.90
24686;DHT22;12804;51.176;4.452;2022-11-15T03:14:00;11.70;99.90
24686;DHT22;12804;51.176;4.452;2022-11-15T03:16:49;11.70;99.90
24686;DHT22;12804;51.176;4.452;2022-11-15T03:19:46;11.80;99.90
24686;DHT22;12804;51.176;4.452;2022-11-15T03:22:38;11.80;99.90
24686;DHT22;12804;51.176;4.452;2022-11-15T03:25:25;11.80;99.90
24686;DHT22;12804;51.176;4.452;2022-11-15T03:28:14;11.80;99.90
24686;DHT22;12804;51.176;4.452;2022-11-15T03:31:01;11.80;99.90
24686;DHT22;12804;51.176;4.452;2022-11-15T03:34:10;11.80;99.90
24686;DHT22;12804;51.176;4.452;2022-11-15T03:36:55;11.90;99.90
24686;DHT22;12804;51.176;4.452;2022-11-15T03:39:40;11.80;99.90
24686;DHT22;12804;51.176;4.452;2022-11-15T03:42:36;11.90;99.90
24686;DHT22;12804;51.176;4.452;2022-11-15T03:45:27;11.80;99.90
24686;DHT22;12804;51.176;4.452;2022-11-15T03:48:22;11.90;99.90
24686;DHT22;12804;51.176;4.452;2022-11-15T03:51:08;11.90;99.90
24686;DHT22;12804;51.176;4.452;2022-11-15T03:53:53;11.80;99.90
24686;DHT22;12804;51.176;4.452;2022-11-15T03:56:37;11.90;99.90
24686;DHT22;12804;51.176;4.452;2022-11-15T03:59:22;11.90;99.90
24686;DHT22;12804;51.176;4.452;2022-11-15T04:02:06;11.80;99.90
24686;DHT22;12804;51.176;4.452;2022-11-15T04:04:50;11.80;99.90
24686;DHT22;12804;51.176;4.452;2022-11-15T04:07:35;11.70;99.90
24686;DHT22;12804;51.176;4.452;2022-11-15T04:10:19;11.80;99.90
24686;DHT22;12804;51.176;4.452;2022-11-15T04:13:04;11.70;99.90
24686;DHT22;12804;51.176;4.452;2022-11-15T04:15:48;11.70;99.90
24686;DHT22;12804;51.176;4.452;2022-11-15T04:18:33;11.70;99.90
24686;DHT22;12804;51.176;4.452;2022-11-15T04:21:17;11.70;99.90
24686;DHT22;12804;51.176;4.452;2022-11-15T04:24:20;11.70;99.90
24686;DHT22;12804;51.176;4.452;2022-11-15T04:27:04;11.70;99.90
24686;DHT22;12804;51.176;4.452;2022-11-15T04:29:48;11.60;99.90
24686;DHT22;12804;51.176;4.452;2022-11-15T04:32:32;11.60;99.90
24686;DHT22;12804;51.176;4.452;2022-11-15T04:35:17;11.60;99.90
24686;DHT22;12804;51.176;4.452;2022-11-15T04:38:02;11.60;99.90
24686;DHT22;12804;51.176;4.452;2022-11-15T04:40:46;11.60;99.90
24686;DHT22;12804;51.176;4.452;2022-11-15T04:43:31;11.60;99.90
24686;DHT22;12804;51.176;4.452;2022-11-15T04:46:15;11.60;99.90
24686;DHT22;12804;51.176;4.452;2022-11-15T04:48:59;11.50;99.90
24686;DHT22;12804;51.176;4.452;2022-11-15T04:51:44;11.50;99.90
24686;DHT22;12804;51.176;4.452;2022-11-15T04:54:28;11.50;99.90
24686;DHT22;12804;51.176;4.452;2022-11-15T04:57:14;11.50;99.90
24686;DHT22;12804;51.176;4.452;2022-11-15T04:59:58;11.60;99.90
24686;DHT22;12804;51.176;4.452;2022-11-15T05:02:43;11.60;99.90
24686;DHT22;12804;51.176;4.452;2022-11-15T05:05:57;11.50;99.90
24686;DHT22;12804;51.176;4.452;2022-11-15T05:08:42;11.50;99.90
24686;DHT22;12804;51.176;4.452;2022-11-15T05:11:26;11.40;99.90
24686;DHT22;12804;51.176;4.452;2022-11-15T05:14:11;11.40;99.90
24686;DHT22;12804;51.176;4.452;2022-11-15T05:16:56;11.30;99.90
24686;DHT22;12804;51.176;4.452;2022-11-15T05:19:41;11.30;99.90
24686;DHT22;12804;51.176;4.452;2022-11-15T05:22:25;11.30;99.90
24686;DHT22;12804;51.176;4.452;2022-11-15T05:25:11;11.30;99.90
24686;DHT22;12804;51.176;4.452;2022-11-15T05:27:55;11.20;99.90
24686;DHT22;12804;51.176;4.452;2022-11-15T05:30:39;11.20;99.90
24686;DHT22;12804;51.176;4.452;2022-11-15T05:33:23;11.20;99.90
24686;DHT22;12804;51.176;4.452;2022-11-15T05:36:29;11.10;99.90
24686;DHT22;12804;51.176;4.452;2022-11-15T05:39:15;11.00;99.90
24686;DHT22;12804;51.176;4.452;2022-11-15T05:42:10;11.00;99.90
24686;DHT22;12804;51.176;4.452;2022-11-15T05:44:57;10.90;99.90
24686;DHT22;12804;51.176;4.452;2022-11-15T05:47:42;10.90;99.90
24686;DHT22;12804;51.176;4.452;2022-11-15T05:50:27;10.90;99.90
24686;DHT22;12804;51.176;4.452;2022-11-15T05:53:14;10.90;99.90
24686;DHT22;12804;51.176;4.452;2022-11-15T05:55:58;10.90;99.90
24686;DHT22;12804;51.176;4.452;2022-11-15T05:58:43;10.90;99.90
24686;DHT22;12804;51.176;4.452;2022-11-15T06:01:27;10.90;99.90
24686;DHT22;12804;51.176;4.452;2022-11-15T06:04:12;10.90;99.90
24686;DHT22;12804;51.176;4.452;2022-11-15T06:06:58;10.90;99.90
24686;DHT22;12804;51.176;4.452;2022-11-15T06:09:42;10.90;99.90
24686;DHT22;12804;51.176;4.452;2022-11-15T06:12:26;10.90;99.90
24686;DHT22;12804;51.176;4.452;2022-11-15T06:15:10;11.00;99.90
24686;DHT22;12804;51.176;4.452;2022-11-15T06:17:58;10.90;99.90
24686;DHT22;12804;51.176;4.452;2022-11-15T06:20:42;10.80;99.90
24686;DHT22;12804;51.176;4.452;2022-11-15T06:23:28;10.80;99.90
24686;DHT22;12804;51.176;4.452;2022-11-15T06:26:15;10.70;99.90
24686;DHT22;12804;51.176;4.452;2022-11-15T06:28:59;10.70;99.90
24686;DHT22;12804;51.176;4.452;2022-11-15T06:31:43;10.60;99.90
24686;DHT22;12804;51.176;4.452;2022-11-15T06:34:28;10.60;99.90
24686;DHT22;12804;51.176;4.452;2022-11-15T06:37:12;10.50;99.90
24686;DHT22;12804;51.176;4.452;2022-11-15T06:39:56;10.60;99.90
24686;DHT22;12804;51.176;4.452;2022-11-15T06:42:40;10.60;99.90
24686;DHT22;12804;51.176;4.452;2022-11-15T06:45:25;10.70;99.90
24686;DHT22;12804;51.176;4.452;2022-11-15T06:48:09;10.70;99.90
24686;DHT22;12804;51.176;4.452;2022-11-15T06:50:55;10.60;99.90
24686;DHT22;12804;51.176;4.452;2022-11-15T06:53:39;10.60;99.90
24686;DHT22;12804;51.176;4.452;2022-11-15T06:56:24;10.50;99.90
24686;DHT22;12804;51.176;4.452;2022-11-15T06:59:08;10.40;99.90
24686;DHT22;12804;51.176;4.452;2022-11-15T07:01:53;10.30;99.90
24686;DHT22;12804;51.176;4.452;2022-11-15T07:04:37;10.30;99.90
24686;DHT22;12804;51.176;4.452;2022-11-15T07:07:22;10.30;99.90
24686;DHT22;12804;51.176;4.452;2022-11-15T07:10:07;10.20;99.90
24686;DHT22;12804;51.176;4.452;2022-11-15T07:12:52;10.20;99.90
24686;DHT22;12804;51.176;4.452;2022-11-15T07:15:37;10.10;99.90
24686;DHT22;12804;51.176;4.452;2022-11-15T07:18:21;10.10;99.90
24686;DHT22;12804;51.176;4.452;2022-11-15T07:21:10;10.00;99.90
24686;DHT22;12804;51.176;4.452;2022-11-15T07:23:54;10.00;99.90
24686;DHT22;12804;51.176;4.452;2022-11-15T07:26:39;10.00;99.90
24686;DHT22;12804;51.176;4.452;2022-11-15T07:29:23;9.90;99.90
24686;DHT22;12804;51.176;4.452;2022-11-15T07:32:09;9.90;99.90
24686;DHT22;12804;51.176;4.452;2022-11-15T07:34:53;10.40;99.90
24686;DHT22;12804;51.176;4.452;2022-11-15T07:37:37;10.30;99.90
24686;DHT22;12804;51.176;4.452;2022-11-15T07:40:22;10.20;99.90
24686;DHT22;12804;51.176;4.452;2022-11-15T07:43:07;10.20;99.90
24686;DHT22;12804;51.176;4.452;2022-11-15T07:45:52;10.20;99.90
24686;DHT22;12804;51.176;4.452;2022-11-15T07:48:37;10.20;99.90
24686;DHT22;12804;51.176;4.452;2022-11-15T07:51:21;10.20;99.90
24686;DHT22;12804;51.176;4.452;2022-11-15T07:54:06;10.20;99.90
24686;DHT22;12804;51.176;4.452;2022-11-15T07:56:50;10.20;99.90
24686;DHT22;12804;51.176;4.452;2022-11-15T07:59:34;10.20;99.90
24686;DHT22;12804;51.176;4.452;2022-11-15T08:02:19;10.20;99.90
24686;DHT22;12804;51.176;4.452;2022-11-15T08:05:03;10.30;99.90
24686;DHT22;12804;51.176;4.452;2022-11-15T08:07:48;10.40;99.90
24686;DHT22;12804;51.176;4.452;2022-11-15T08:10:32;10.40;99.90
24686;DHT22;12804;51.176;4.452;2022-11-15T08:13:17;10.30;99.90
24686;DHT22;12804;51.176;4.452;2022-11-15T08:16:02;10.20;99.90
24686;DHT22;12804;51.176;4.452;2022-11-15T08:18:49;10.30;99.90
24686;DHT22;12804;51.176;4.452;2022-11-15T08:21:33;10.30;99.90
24686;DHT22;12804;51.176;4.452;2022-11-15T08:24:19;10.40;99.90
24686;DHT22;12804;51.176;4.452;2022-11-15T08:27:04;10.50;99.90
24686;DHT22;12804;51.176;4.452;2022-11-15T08:29:49;10.50;99.90
24686;DHT22;12804;51.176;4.452;2022-11-15T08:32:34;10.50;99.90
24686;DHT22;12804;51.176;4.452;2022-11-15T08:35:19;10.50;99.90
24686;DHT22;12804;51.176;4.452;2022-11-15T08:38:04;10.60;99.90
24686;DHT22;12804;51.176;4.452;2022-11-15T08:40:48;10.60;99.90
24686;DHT22;12804;51.176;4.452;2022-11-15T08:43:34;10.70;99.90
24686;DHT22;12804;51.176;4.452;2022-11-15T08:46:18;10.60;99.90
24686;DHT22;12804;51.176;4.452;2022-11-15T08:49:03;10.60;99.90
24686;DHT22;12804;51.176;4.452;2022-11-15T08:51:47;10.60;99.90
24686;DHT22;12804;51.176;4.452;2022-11-15T08:54:32;10.70;99.90
24686;DHT22;12804;51.176;4.452;2022-11-15T08:57:17;10.80;99.90
24686;DHT22;12804;51.176;4.452;2022-11-15T09:00:01;10.80;99.90
24686;DHT22;12804;51.176;4.452;2022-11-15T09:02:45;10.80;99.90
24686;DHT22;12804;51.176;4.452;2022-11-15T09:05:30;10.90;99.90
24686;DHT22;12804;51.176;4.452;2022-11-15T09:08:15;10.90;99.90
24686;DHT22;12804;51.176;4.452;2022-11-15T09:11:06;10.90;99.90
24686;DHT22;12804;51.176;4.452;2022-11-15T09:13:51;11.00;99.90
24686;DHT22;12804;51.176;4.452;2022-11-15T09:16:35;10.90;99.90
24686;DHT22;12804;51.176;4.452;2022-11-15T09:19:20;11.00;99.90
24686;DHT22;12804;51.176;4.452;2022-11-15T09:22:08;11.00;99.90
24686;DHT22;12804;51.176;4.452;2022-11-15T09:24:52;11.10;99.90
24686;DHT22;12804;51.176;4.452;2022-11-15T09:27:37;11.20;99.90
24686;DHT22;12804;51.176;4.452;2022-11-15T09:30:21;11.40;99.90
24686;DHT22;12804;51.176;4.452;2022-11-15T09:33:10;11.40;99.90
24686;DHT22;12804;51.176;4.452;2022-11-15T09:36:00;11.60;99.90
24686;DHT22;12804;51.176;4.452;2022-11-15T09:38:45;11.70;99.90
24686;DHT22;12804;51.176;4.452;2022-11-15T09:41:47;11.80;99.90
24686;DHT22;12804;51.176;4.452;2022-11-15T09:48:03;11.80;99.90
24686;DHT22;12804;51.176;4.452;2022-11-15T09:50:49;11.70;99.90
24686;DHT22;12804;51.176;4.452;2022-11-15T09:53:41;11.70;99.90
24686;DHT22;12804;51.176;4.452;2022-11-15T09:56:29;11.90;99.90
24686;DHT22;12804;51.176;4.452;2022-11-15T10:04:33;12.40;99.90
24686;DHT22;12804;51.176;4.452;2022-11-15T10:07:04;12.50;99.90
24686;DHT22;12804;51.176;4.452;2022-11-15T10:09:34;12.70;99.90
24686;DHT22;12804;51.176;4.452;2022-11-15T10:12:02;12.90;99.90
24686;DHT22;12804;51.176;4.452;2022-11-15T10:14:30;13.00;99.90
24686;DHT22;12804;51.176;4.452;2022-11-15T10:22:18;13.30;99.90
24686;DHT22;12804;51.176;4.452;2022-11-15T10:24:46;13.40;99.90
24686;DHT22;12804;51.176;4.452;2022-11-15T10:27:18;13.40;99.90
24686;DHT22;12804;51.176;4.452;2022-11-15T10:29:49;13.60;99.90
24686;DHT22;12804;51.176;4.452;2022-11-15T10:32:20;13.30;99.90
24686;DHT22;12804;51.176;4.452;2022-11-15T10:34:48;13.20;99.90
24686;DHT22;12804;51.176;4.452;2022-11-15T10:37:14;13.30;99.90
24686;DHT22;12804;51.176;4.452;2022-11-15T10:40:06;13.30;99.90
24686;DHT22;12804;51.176;4.452;2022-11-15T10:42:32;13.10;99.90
24686;DHT22;12804;51.176;4.452;2022-11-15T10:44:58;13.30;99.90
24686;DHT22;12804;51.176;4.452;2022-11-15T10:47:29;13.70;99.90
24686;DHT22;12804;51.176;4.452;2022-11-15T10:50:24;13.80;99.90
24686;DHT22;12804;51.176;4.452;2022-11-15T10:52:51;13.70;99.90
24686;DHT22;12804;51.176;4.452;2022-11-15T10:58:01;13.50;99.90
24686;DHT22;12804;51.176;4.452;2022-11-15T11:00:36;13.60;99.90
24686;DHT22;12804;51.176;4.452;2022-11-15T11:08:35;13.90;99.90
24686;DHT22;12804;51.176;4.452;2022-11-15T11:11:03;13.80;99.90
24686;DHT22;12804;51.176;4.452;2022-11-15T11:13:37;13.90;99.90
24686;DHT22;12804;51.176;4.452;2022-11-15T11:16:21;13.40;99.90
24686;DHT22;12804;51.176;4.452;2022-11-15T11:21:47;13.40;99.90
24686;DHT22;12804;51.176;4.452;2022-11-15T11:32:40;13.40;99.90
24686;DHT22;12804;51.176;4.452;2022-11-15T11:40:51;13.60;99.90
24686;DHT22;12804;51.176;4.452;2022-11-15T11:48:41;13.20;99.90
24686;DHT22;12804;51.176;4.452;2022-11-15T11:51:23;13.40;99.90
24686;DHT22;12804;51.176;4.452;2022-11-15T11:56:28;13.50;99.90
24686;DHT22;12804;51.176;4.452;2022-11-15T11:59:01;13.30;99.90
24686;DHT22;12804;51.176;4.452;2022-11-15T12:01:40;13.30;99.90
24686;DHT22;12804;51.176;4.452;2022-11-15T12:04:36;13.50;99.90
24686;DHT22;12804;51.176;4.452;2022-11-15T12:07:24;13.50;99.90
24686;DHT22;12804;51.176;4.452;2022-11-15T12:10:23;13.60;99.90
24686;DHT22;12804;51.176;4.452;2022-11-15T12:13:10;13.30;99.90
24686;DHT22;12804;51.176;4.452;2022-11-15T12:15:43;13.30;99.90
24686;DHT22;12804;51.176;4.452;2022-11-15T12:18:13;13.40;99.90
24686;DHT22;12804;51.176;4.452;2022-11-15T12:20:50;13.40;99.90
24686;DHT22;12804;51.176;4.452;2022-11-15T12:23:27;13.20;99.90
24686;DHT22;12804;51.176;4.452;2022-11-15T12:26:04;13.20;99.90
24686;DHT22;12804;51.176;4.452;2022-11-15T12:31:17;13.10;99.90
24686;DHT22;12804;51.176;4.452;2022-11-15T12:33:46;13.20;99.90
24686;DHT22;12804;51.176;4.452;2022-11-15T12:41:31;13.50;99.90
24686;DHT22;12804;51.176;4.452;2022-11-15T12:43:58;13.50;99.90
24686;DHT22;12804;51.176;4.452;2022-11-15T13:17:49;14.20;99.90
24686;DHT22;12804;51.176;4.452;2022-11-15T13:20:19;14.10;99.90
24686;DHT22;12804;51.176;4.452;2022-11-15T13:28:10;14.30;99.90
24686;DHT22;12804;51.176;4.452;2022-11-15T13:30:37;14.40;99.90
24686;DHT22;12804;51.176;4.452;2022-11-15T13:33:33;14.40;99.90
24686;DHT22;12804;51.176;4.452;2022-11-15T13:36:30;14.30;99.90
24686;DHT22;12804;51.176;4.452;2022-11-15T13:39:12;14.20;99.90
24686;DHT22;12804;51.176;4.452;2022-11-15T13:41:48;14.10;99.90
24686;DHT22;12804;51.176;4.452;2022-11-15T13:44:32;14.10;99.90
24686;DHT22;12804;51.176;4.452;2022-11-15T13:47:07;14.10;99.90
24686;DHT22;12804;51.176;4.452;2022-11-15T13:49:34;13.90;99.90
24686;DHT22;12804;51.176;4.452;2022-11-15T13:52:05;14.00;99.90
24686;DHT22;12804;51.176;4.452;2022-11-15T13:57:05;13.90;99.90
24686;DHT22;12804;51.176;4.452;2022-11-15T13:59:59;13.80;99.90
24686;DHT22;12804;51.176;4.452;2022-11-15T14:02:29;13.70;99.90
24686;DHT22;12804;51.176;4.452;2022-11-15T14:07:56;13.80;99.90
24686;DHT22;12804;51.176;4.452;2022-11-15T14:10:32;13.70;99.90
24686;DHT22;12804;51.176;4.452;2022-11-15T14:12:58;13.70;99.90
24686;DHT22;12804;51.176;4.452;2022-11-15T14:17:53;13.60;99.90
24686;DHT22;12804;51.176;4.452;2022-11-15T14:20:30;13.70;99.90
24686;DHT22;12804;51.176;4.452;2022-11-15T14:23:03;13.60;99.90
24686;DHT22;12804;51.176;4.452;2022-11-15T14:25:31;13.50;99.90
24686;DHT22;12804;51.176;4.452;2022-11-15T14:28:30;13.60;99.90
24686;DHT22;12804;51.176;4.452;2022-11-15T14:30:59;13.60;99.90
24686;DHT22;12804;51.176;4.452;2022-11-15T14:33:27;13.60;99.90
24686;DHT22;12804;51.176;4.452;2022-11-15T14:35:55;13.70;99.90
24686;DHT22;12804;51.176;4.452;2022-11-15T14:38:27;13.70;99.90
24686;DHT22;12804;51.176;4.452;2022-11-15T14:40:53;13.80;99.90
24686;DHT22;12804;51.176;4.452;2022-11-15T14:43:20;13.90;99.90
24686;DHT22;12804;51.176;4.452;2022-11-15T14:45:46;13.80;99.90
24686;DHT22;12804;51.176;4.452;2022-11-15T14:48:12;14.00;99.90
24686;DHT22;12804;51.176;4.452;2022-11-15T14:50:37;13.80;99.90
24686;DHT22;12804;51.176;4.452;2022-11-15T14:53:04;13.80;99.90
24686;DHT22;12804;51.176;4.452;2022-11-15T14:55:35;13.70;99.90
24686;DHT22;12804;51.176;4.452;2022-11-15T14:58:05;13.50;99.90
24686;DHT22;12804;51.176;4.452;2022-11-15T15:00:38;13.40;99.90
24686;DHT22;12804;51.176;4.452;2022-11-15T15:03:05;13.10;99.90
24686;DHT22;12804;51.176;4.452;2022-11-15T15:07:59;12.90;99.90
24686;DHT22;12804;51.176;4.452;2022-11-15T15:10:29;12.90;99.90
24686;DHT22;12804;51.176;4.452;2022-11-15T15:12:56;12.80;99.90
24686;DHT22;12804;51.176;4.452;2022-11-15T15:15:25;12.90;99.90
24686;DHT22;12804;51.176;4.452;2022-11-15T15:17:51;12.80;99.90
24686;DHT22;12804;51.176;4.452;2022-11-15T15:20:18;12.70;99.90
24686;DHT22;12804;51.176;4.452;2022-11-15T15:22:44;12.80;99.90
24686;DHT22;12804;51.176;4.452;2022-11-15T15:25:33;12.80;99.90
24686;DHT22;12804;51.176;4.452;2022-11-15T15:27:59;12.90;99.90
24686;DHT22;12804;51.176;4.452;2022-11-15T15:30:27;13.00;99.90
24686;DHT22;12804;51.176;4.452;2022-11-15T15:32:53;13.10;99.90
24686;DHT22;12804;51.176;4.452;2022-11-15T15:35:20;13.00;99.90
24686;DHT22;12804;51.176;4.452;2022-11-15T15:37:47;12.90;99.90
24686;DHT22;12804;51.176;4.452;2022-11-15T15:40:19;12.90;99.90
24686;DHT22;12804;51.176;4.452;2022-11-15T15:42:49;12.90;99.90
24686;DHT22;12804;51.176;4.452;2022-11-15T15:45:16;12.90;99.90
24686;DHT22;12804;51.176;4.452;2022-11-15T15:47:42;12.90;99.90
24686;DHT22;12804;51.176;4.452;2022-11-15T15:50:29;12.90;99.90
24686;DHT22;12804;51.176;4.452;2022-11-15T15:52:59;12.90;99.90
24686;DHT22;12804;51.176;4.452;2022-11-15T15:55:26;13.00;99.90
24686;DHT22;12804;51.176;4.452;2022-11-15T15:57:52;13.00;99.90
24686;DHT22;12804;51.176;4.452;2022-11-15T16:00:19;12.90;99.90
24686;DHT22;12804;51.176;4.452;2022-11-15T16:02:46;12.90;99.90
24686;DHT22;12804;51.176;4.452;2022-11-15T16:05:25;12.90;99.90
24686;DHT22;12804;51.176;4.452;2022-11-15T16:07:51;12.80;99.90
24686;DHT22;12804;51.176;4.452;2022-11-15T16:10:25;12.80;99.90
24686;DHT22;12804;51.176;4.452;2022-11-15T16:12:52;12.60;99.90
24686;DHT22;12804;51.176;4.452;2022-11-15T16:15:18;12.60;99.90
24686;DHT22;12804;51.176;4.452;2022-11-15T16:20:38;12.70;99.90
24686;DHT22;12804;51.176;4.452;2022-11-15T16:23:13;12.60;99.90
24686;DHT22;12804;51.176;4.452;2022-11-15T16:25:52;12.70;99.90
24686;DHT22;12804;51.176;4.452;2022-11-15T16:31:03;12.60;99.90
24686;DHT22;12804;51.176;4.452;2022-11-15T16:33:29;12.70;99.90
24686;DHT22;12804;51.176;4.452;2022-11-15T16:35:55;12.70;99.90
24686;DHT22;12804;51.176;4.452;2022-11-15T16:38:21;12.70;99.90
24686;DHT22;12804;51.176;4.452;2022-11-15T16:40:47;12.70;99.90
24686;DHT22;12804;51.176;4.452;2022-11-15T16:43:13;12.70;99.90
24686;DHT22;12804;51.176;4.452;2022-11-15T16:45:38;12.70;99.90
24686;DHT22;12804;51.176;4.452;2022-11-15T16:48:05;12.70;99.90
24686;DHT22;12804;51.176;4.452;2022-11-15T16:50:33;12.70;99.90
24686;DHT22;12804;51.176;4.452;2022-11-15T16:53:05;12.60;99.90
24686;DHT22;12804;51.176;4.452;2022-11-15T16:55:31;12.50;99.90
24686;DHT22;12804;51.176;4.452;2022-11-15T16:57:57;12.50;99.90
24686;DHT22;12804;51.176;4.452;2022-11-15T17:00:23;12.50;99.90
24686;DHT22;12804;51.176;4.452;2022-11-15T17:02:50;12.60;99.90
24686;DHT22;12804;51.176;4.452;2022-11-15T17:05:21;12.60;99.90
24686;DHT22;12804;51.176;4.452;2022-11-15T17:07:49;12.60;99.90
24686;DHT22;12804;51.176;4.452;2022-11-15T17:10:17;12.70;99.90
24686;DHT22;12804;51.176;4.452;2022-11-15T17:12:43;12.70;99.90
24686;DHT22;12804;51.176;4.452;2022-11-15T17:15:11;12.60;99.90
24686;DHT22;12804;51.176;4.452;2022-11-15T17:17:37;12.60;99.90
24686;DHT22;12804;51.176;4.452;2022-11-15T17:20:03;12.60;99.90
24686;DHT22;12804;51.176;4.452;2022-11-15T17:22:35;12.60;99.90
24686;DHT22;12804;51.176;4.452;2022-11-15T17:25:02;12.40;99.90
24686;DHT22;12804;51.176;4.452;2022-11-15T17:27:28;12.30;99.90
24686;DHT22;12804;51.176;4.452;2022-11-15T17:29:54;12.30;99.90
24686;DHT22;12804;51.176;4.452;2022-11-15T17:32:20;12.20;99.90
24686;DHT22;12804;51.176;4.452;2022-11-15T17:34:46;12.20;99.90
24686;DHT22;12804;51.176;4.452;2022-11-15T17:37:11;12.20;99.90
24686;DHT22;12804;51.176;4.452;2022-11-15T17:39:37;12.20;99.90
24686;DHT22;12804;51.176;4.452;2022-11-15T17:42:03;12.20;99.90
24686;DHT22;12804;51.176;4.452;2022-11-15T17:44:29;12.20;99.90
24686;DHT22;12804;51.176;4.452;2022-11-15T17:46:55;12.30;99.90
24686;DHT22;12804;51.176;4.452;2022-11-15T17:49:21;12.20;99.90
24686;DHT22;12804;51.176;4.452;2022-11-15T17:51:47;12.20;99.90
24686;DHT22;12804;51.176;4.452;2022-11-15T17:54:12;12.30;99.90
24686;DHT22;12804;51.176;4.452;2022-11-15T17:56:39;12.20;99.90
24686;DHT22;12804;51.176;4.452;2022-11-15T17:59:06;12.20;99.90
24686;DHT22;12804;51.176;4.452;2022-11-15T18:01:35;12.20;99.90
24686;DHT22;12804;51.176;4.452;2022-11-15T18:04:03;12.20;99.90
24686;DHT22;12804;51.176;4.452;2022-11-15T18:06:31;12.20;99.90
24686;DHT22;12804;51.176;4.452;2022-11-15T18:08:58;12.20;99.90
24686;DHT22;12804;51.176;4.452;2022-11-15T18:11:44;12.30;99.90
24686;DHT22;12804;51.176;4.452;2022-11-15T18:14:15;12.30;99.90
24686;DHT22;12804;51.176;4.452;2022-11-15T18:16:41;12.20;99.90
24686;DHT22;12804;51.176;4.452;2022-11-15T18:19:07;12.20;99.90
24686;DHT22;12804;51.176;4.452;2022-11-15T18:21:41;12.30;99.90
24686;DHT22;12804;51.176;4.452;2022-11-15T18:24:34;12.30;99.90
24686;DHT22;12804;51.176;4.452;2022-11-15T18:27:02;12.30;99.90
24686;DHT22;12804;51.176;4.452;2022-11-15T18:29:28;12.20;99.90
24686;DHT22;12804;51.176;4.452;2022-11-15T18:31:54;12.20;99.90
24686;DHT22;12804;51.176;4.452;2022-11-15T18:34:22;12.20;99.90
24686;DHT22;12804;51.176;4.452;2022-11-15T18:36:52;12.20;99.90
24686;DHT22;12804;51.176;4.452;2022-11-15T18:39:18;12.30;99.90
24686;DHT22;12804;51.176;4.452;2022-11-15T18:41:44;12.40;99.90
24686;DHT22;12804;51.176;4.452;2022-11-15T18:44:13;12.50;99.90
24686;DHT22;12804;51.176;4.452;2022-11-15T18:46:41;12.40;99.90
24686;DHT22;12804;51.176;4.452;2022-11-15T18:49:10;12.30;99.90
24686;DHT22;12804;51.176;4.452;2022-11-15T18:51:37;12.40;99.90
24686;DHT22;12804;51.176;4.452;2022-11-15T18:54:07;12.60;99.90
24686;DHT22;12804;51.176;4.452;2022-11-15T18:56:34;12.70;99.90
24686;DHT22;12804;51.176;4.452;2022-11-15T18:59:00;12.70;99.90